Weather at Ouyen Airport

Public forecast

Using degrees Celsius for public forecast. Weather courtesy of forecast.io.

Closest aviation weather report (METAR) to Ouyen Airport

Closest report is Mildura Airport, 53.3 nm (98.7 km) NNW. Retrieved 2021/07/28 15:00 UTC (42 minutes ago):

YMIA 281500Z AUTO 28005KT 9999 // NCD 06/04 Q1015

Closest aviation forecast (TAF) to Ouyen Airport

Closest forecast is Adelaide International Airport, 188.2 nm (348.5 km) W. Retrieved 2021/07/28 15:35 UTC (7 minutes ago):

TAF YPAD 281424Z 2815/2918 31010KT CAVOK FM282100 03006KT 9999 FEW005 FM290000 01011KT CAVOK BECMG 2901/2903 34014KT CAVOK FM290900 02012KT CAVOK